sensor_id;sensor_type;location;lat;lon;timestamp;pressure;altitude;pressure_sealevel;temperature;humidity
19759;BME280;10038;42.662;23.278;2022-09-12T00:00:32;72342.13;;;15.07;100.00
19759;BME280;10038;42.662;23.278;2022-09-12T00:02:59;72346.16;;;15.11;100.00
19759;BME280;10038;42.662;23.278;2022-09-12T00:05:27;72338.81;;;15.07;100.00
19759;BME280;10038;42.662;23.278;2022-09-12T00:07:55;72337.22;;;15.08;100.00
19759;BME280;10038;42.662;23.278;2022-09-12T00:10:22;72326.03;;;14.96;100.00
19759;BME280;10038;42.662;23.278;2022-09-12T00:12:49;72322.97;;;14.91;99.70
19759;BME280;10038;42.662;23.278;2022-09-12T00:15:15;72321.22;;;14.89;100.00
19759;BME280;10038;42.662;23.278;2022-09-12T00:17:42;72320.66;;;14.89;99.62
19759;BME280;10038;42.662;23.278;2022-09-12T00:20:10;72324.31;;;14.94;99.75
19759;BME280;10038;42.662;23.278;2022-09-12T00:22:38;72322.38;;;14.90;99.04
19759;BME280;10038;42.662;23.278;2022-09-12T00:25:05;72329.34;;;14.96;99.07
19759;BME280;10038;42.662;23.278;2022-09-12T00:27:33;72321.16;;;14.96;99.13
19759;BME280;10038;42.662;23.278;2022-09-12T00:29:59;72300.78;;;14.69;98.75
19759;BME280;10038;42.662;23.278;2022-09-12T00:32:26;72331.25;;;15.00;98.25
19759;BME280;10038;42.662;23.278;2022-09-12T00:34:53;72347.31;;;15.12;97.12
19759;BME280;10038;42.662;23.278;2022-09-12T00:37:19;72348.16;;;15.08;96.38
19759;BME280;10038;42.662;23.278;2022-09-12T00:39:48;72344.00;;;15.11;96.86
19759;BME280;10038;42.662;23.278;2022-09-12T00:42:14;72346.34;;;15.13;96.80
19759;BME280;10038;42.662;23.278;2022-09-12T00:44:46;72345.75;;;15.13;96.12
19759;BME280;10038;42.662;23.278;2022-09-12T00:47:21;72344.75;;;15.14;95.82
19759;BME280;10038;42.662;23.278;2022-09-12T00:49:51;72328.78;;;14.96;96.06
19759;BME280;10038;42.662;23.278;2022-09-12T00:52:24;72311.47;;;14.90;96.50
19759;BME280;10038;42.662;23.278;2022-09-12T00:54:57;72323.56;;;14.91;96.47
19759;BME280;10038;42.662;23.278;2022-09-12T00:57:29;72306.91;;;14.79;96.81
19759;BME280;10038;42.662;23.278;2022-09-12T01:00:00;72304.59;;;14.77;96.70
19759;BME280;10038;42.662;23.278;2022-09-12T01:02:30;72286.44;;;14.59;96.61
19759;BME280;10038;42.662;23.278;2022-09-12T01:04:56;72275.75;;;14.54;96.37
19759;BME280;10038;42.662;23.278;2022-09-12T01:07:23;72279.66;;;14.55;95.65
19759;BME280;10038;42.662;23.278;2022-09-12T01:09:50;72278.06;;;14.56;95.56
19759;BME280;10038;42.662;23.278;2022-09-12T01:12:19;72268.63;;;14.46;95.34
19759;BME280;10038;42.662;23.278;2022-09-12T01:14:46;72260.09;;;14.41;95.49
19759;BME280;10038;42.662;23.278;2022-09-12T01:17:13;72263.59;;;14.44;95.88
19759;BME280;10038;42.662;23.278;2022-09-12T01:20:19;72259.53;;;14.40;95.86
19759;BME280;10038;42.662;23.278;2022-09-12T01:23:10;72257.81;;;14.39;95.19
19759;BME280;10038;42.662;23.278;2022-09-12T01:25:59;72264.41;;;14.40;94.87
19759;BME280;10038;42.662;23.278;2022-09-12T01:28:43;72267.88;;;14.43;94.74
19759;BME280;10038;42.662;23.278;2022-09-12T01:31:21;72261.09;;;14.39;94.16
19759;BME280;10038;42.662;23.278;2022-09-12T01:33:57;72258.19;;;14.37;94.07
19759;BME280;10038;42.662;23.278;2022-09-12T01:36:42;72252.41;;;14.32;93.84
19759;BME280;10038;42.662;23.278;2022-09-12T01:39:23;72264.41;;;14.40;94.27
19759;BME280;10038;42.662;23.278;2022-09-12T01:41:55;72243.84;;;14.27;94.95
19759;BME280;10038;42.662;23.278;2022-09-12T01:44:34;72255.72;;;14.32;94.86
19759;BME280;10038;42.662;23.278;2022-09-12T01:47:07;72246.16;;;14.29;94.62
19759;BME280;10038;42.662;23.278;2022-09-12T01:49:39;72260.91;;;14.37;94.76
19759;BME280;10038;42.662;23.278;2022-09-12T01:52:14;72243.84;;;14.27;94.96
19759;BME280;10038;42.662;23.278;2022-09-12T01:54:47;72257.47;;;14.34;95.04
19759;BME280;10038;42.662;23.278;2022-09-12T01:57:18;72243.09;;;14.24;95.10
19759;BME280;10038;42.662;23.278;2022-09-12T01:59:51;72234.25;;;14.13;94.61
19759;BME280;10038;42.662;23.278;2022-09-12T02:02:24;72227.88;;;14.08;94.89
19759;BME280;10038;42.662;23.278;2022-09-12T02:04:58;72228.78;;;14.13;95.35
19759;BME280;10038;42.662;23.278;2022-09-12T02:07:30;72228.47;;;14.08;95.32
19759;BME280;10038;42.662;23.278;2022-09-12T02:10:05;72218.53;;;14.07;95.49
19759;BME280;10038;42.662;23.278;2022-09-12T02:12:38;72231.94;;;14.11;95.60
19759;BME280;10038;42.662;23.278;2022-09-12T02:15:07;72214.13;;;13.98;94.95
19759;BME280;10038;42.662;23.278;2022-09-12T02:17:38;72215.72;;;13.97;95.77
19759;BME280;10038;42.662;23.278;2022-09-12T02:20:10;72206.03;;;13.91;96.50
19759;BME280;10038;42.662;23.278;2022-09-12T02:22:41;72204.84;;;13.90;96.19
19759;BME280;10038;42.662;23.278;2022-09-12T02:25:10;72201.78;;;13.85;95.69
19759;BME280;10038;42.662;23.278;2022-09-12T02:27:43;72194.78;;;13.86;95.85
19759;BME280;10038;42.662;23.278;2022-09-12T02:30:13;72202.97;;;13.86;95.53
19759;BME280;10038;42.662;23.278;2022-09-12T02:32:51;72192.94;;;13.75;95.36
19759;BME280;10038;42.662;23.278;2022-09-12T02:35:29;72188.81;;;13.79;95.12
19759;BME280;10038;42.662;23.278;2022-09-12T02:38:02;72194.84;;;13.79;94.69
19759;BME280;10038;42.662;23.278;2022-09-12T02:40:30;72196.59;;;13.81;94.14
19759;BME280;10038;42.662;23.278;2022-09-12T02:42:59;72198.72;;;13.80;94.49
19759;BME280;10038;42.662;23.278;2022-09-12T02:45:26;72184.41;;;13.70;94.84
19759;BME280;10038;42.662;23.278;2022-09-12T02:47:57;72147.53;;;13.40;94.11
19759;BME280;10038;42.662;23.278;2022-09-12T02:50:26;72177.63;;;13.67;95.00
19759;BME280;10038;42.662;23.278;2022-09-12T02:52:54;72181.53;;;13.68;94.77
19759;BME280;10038;42.662;23.278;2022-09-12T02:55:24;72122.19;;;13.21;95.19
19759;BME280;10038;42.662;23.278;2022-09-12T02:57:51;72189.22;;;13.77;95.05
19759;BME280;10038;42.662;23.278;2022-09-12T03:00:19;72183.25;;;13.69;95.20
19759;BME280;10038;42.662;23.278;2022-09-12T03:03:08;72191.94;;;13.77;95.61
19759;BME280;10038;42.662;23.278;2022-09-12T03:05:45;72183.59;;;13.74;95.26
19759;BME280;10038;42.662;23.278;2022-09-12T03:11:25;72196.34;;;13.85;95.54
19759;BME280;10038;42.662;23.278;2022-09-12T03:14:03;72204.09;;;13.87;95.76
19759;BME280;10038;42.662;23.278;2022-09-12T03:16:40;72191.34;;;13.76;96.21
19759;BME280;10038;42.662;23.278;2022-09-12T03:19:16;72183.84;;;13.70;96.39
19759;BME280;10038;42.662;23.278;2022-09-12T03:21:56;72184.97;;;13.71;96.19
19759;BME280;10038;42.662;23.278;2022-09-12T03:24:28;72143.47;;;13.37;96.26
19759;BME280;10038;42.662;23.278;2022-09-12T03:27:04;72174.31;;;13.66;96.64
19759;BME280;10038;42.662;23.278;2022-09-12T03:29:36;72134.59;;;13.27;97.00
19759;BME280;10038;42.662;23.278;2022-09-12T03:32:04;72169.53;;;13.59;97.96
19759;BME280;10038;42.662;23.278;2022-09-12T03:34:33;72163.88;;;13.57;98.33
19759;BME280;10038;42.662;23.278;2022-09-12T03:37:00;72162.41;;;13.51;97.54
19759;BME280;10038;42.662;23.278;2022-09-12T03:39:27;72161.25;;;13.50;98.31
19759;BME280;10038;42.662;23.278;2022-09-12T03:41:54;72169.34;;;13.57;97.59
19759;BME280;10038;42.662;23.278;2022-09-12T03:44:21;72157.75;;;13.47;97.52
19759;BME280;10038;42.662;23.278;2022-09-12T03:46:47;72165.31;;;13.53;97.51
19759;BME280;10038;42.662;23.278;2022-09-12T03:49:14;72164.47;;;13.57;97.33
19759;BME280;10038;42.662;23.278;2022-09-12T03:51:43;72170.50;;;13.58;97.28
19759;BME280;10038;42.662;23.278;2022-09-12T03:54:10;72183.25;;;13.69;97.21
19759;BME280;10038;42.662;23.278;2022-09-12T03:56:37;72189.03;;;13.74;96.63
19759;BME280;10038;42.662;23.278;2022-09-12T03:59:05;72189.03;;;13.74;96.33
19759;BME280;10038;42.662;23.278;2022-09-12T04:01:33;72190.22;;;13.75;96.81
19759;BME280;10038;42.662;23.278;2022-09-12T04:04:00;72172.00;;;13.64;97.47
19759;BME280;10038;42.662;23.278;2022-09-12T04:06:26;72184.75;;;13.75;96.83
19759;BME280;10038;42.662;23.278;2022-09-12T04:08:55;72180.94;;;13.67;97.82
19759;BME280;10038;42.662;23.278;2022-09-12T04:11:22;72183.25;;;13.69;97.53
19759;BME280;10038;42.662;23.278;2022-09-12T04:13:49;72191.19;;;13.74;96.40
19759;BME280;10038;42.662;23.278;2022-09-12T04:16:17;72161.25;;;13.50;96.26
19759;BME280;10038;42.662;23.278;2022-09-12T04:18:44;72144.78;;;13.40;96.11
19759;BME280;10038;42.662;23.278;2022-09-12T04:21:12;72209.34;;;13.92;95.76
19759;BME280;10038;42.662;23.278;2022-09-12T04:23:40;72215.72;;;13.97;96.01
19759;BME280;10038;42.662;23.278;2022-09-12T04:26:08;72235.41;;;14.14;94.43
19759;BME280;10038;42.662;23.278;2022-09-12T04:28:36;72324.31;;;14.94;91.77
19759;BME280;10038;42.662;23.278;2022-09-12T04:31:06;72371.13;;;15.32;89.62
19759;BME280;10038;42.662;23.278;2022-09-12T04:33:33;72330.84;;;15.02;90.57
19759;BME280;10038;42.662;23.278;2022-09-12T04:36:04;72315.75;;;14.89;91.77
19759;BME280;10038;42.662;23.278;2022-09-12T04:38:32;72305.34;;;14.80;92.34
19759;BME280;10038;42.662;23.278;2022-09-12T04:40:58;72299.53;;;14.75;92.85
19759;BME280;10038;42.662;23.278;2022-09-12T04:43:26;72299.19;;;14.70;93.06
19759;BME280;10038;42.662;23.278;2022-09-12T04:45:53;72305.34;;;14.80;92.69
19759;BME280;10038;42.662;23.278;2022-09-12T04:48:20;72292.97;;;14.67;92.44
19759;BME280;10038;42.662;23.278;2022-09-12T04:50:46;72337.22;;;15.08;92.12
19759;BME280;10038;42.662;23.278;2022-09-12T04:53:13;72341.88;;;15.12;91.64
19759;BME280;10038;42.662;23.278;2022-09-12T04:55:40;72351.72;;;15.20;91.40
19759;BME280;10038;42.662;23.278;2022-09-12T04:58:06;72371.44;;;15.38;90.31
19759;BME280;10038;42.662;23.278;2022-09-12T05:00:35;72366.63;;;15.31;88.91
19759;BME280;10038;42.662;23.278;2022-09-12T05:03:02;72378.41;;;15.44;88.88
19759;BME280;10038;42.662;23.278;2022-09-12T05:05:28;72380.56;;;15.43;88.57
19759;BME280;10038;42.662;23.278;2022-09-12T05:07:55;72380.72;;;15.46;88.52
19759;BME280;10038;42.662;23.278;2022-09-12T05:10:22;72388.13;;;15.50;89.04
19759;BME280;10038;42.662;23.278;2022-09-12T05:12:48;72389.28;;;15.51;88.23
19759;BME280;10038;42.662;23.278;2022-09-12T05:15:15;72368.88;;;15.40;88.71
19759;BME280;10038;42.662;23.278;2022-09-12T05:17:43;72384.25;;;15.49;87.80
19759;BME280;10038;42.662;23.278;2022-09-12T05:20:10;72379.56;;;15.45;88.81
19759;BME280;10038;42.662;23.278;2022-09-12T05:22:37;72395.25;;;15.58;88.58
19759;BME280;10038;42.662;23.278;2022-09-12T05:25:05;72374.50;;;15.43;88.11
19759;BME280;10038;42.662;23.278;2022-09-12T05:27:32;72370.28;;;15.36;88.53
19759;BME280;10038;42.662;23.278;2022-09-12T05:29:59;72370.63;;;15.42;88.24
19759;BME280;10038;42.662;23.278;2022-09-12T05:32:30;72389.28;;;15.51;87.90
19759;BME280;10038;42.662;23.278;2022-09-12T05:34:58;72394.50;;;15.55;87.50
19759;BME280;10038;42.662;23.278;2022-09-12T05:37:25;72402.53;;;15.69;87.69
19759;BME280;10038;42.662;23.278;2022-09-12T05:39:52;72417.47;;;15.80;87.08
19759;BME280;10038;42.662;23.278;2022-09-12T05:42:18;72416.31;;;15.79;86.85
19759;BME280;10038;42.662;23.278;2022-09-12T05:44:45;72425.50;;;15.77;86.23
19759;BME280;10038;42.662;23.278;2022-09-12T05:47:12;72386.56;;;15.51;85.50
19759;BME280;10038;42.662;23.278;2022-09-12T05:49:41;72475.94;;;16.28;85.33
19759;BME280;10038;42.662;23.278;2022-09-12T05:52:11;72502.72;;;16.61;83.89
19759;BME280;10038;42.662;23.278;2022-09-12T05:54:37;72512.69;;;16.63;83.32
19759;BME280;10038;42.662;23.278;2022-09-12T05:57:05;72526.53;;;16.82;82.78
19759;BME280;10038;42.662;23.278;2022-09-12T05:59:32;72532.84;;;16.78;81.84
19759;BME280;10038;42.662;23.278;2022-09-12T06:01:58;72583.06;;;17.17;80.78
19759;BME280;10038;42.662;23.278;2022-09-12T06:04:26;72581.63;;;17.20;79.64
19759;BME280;10038;42.662;23.278;2022-09-12T06:06:53;72618.00;;;17.56;79.46
19759;BME280;10038;42.662;23.278;2022-09-12T06:09:21;72622.31;;;17.55;78.63
19759;BME280;10038;42.662;23.278;2022-09-12T06:11:49;72646.16;;;17.76;77.68
19759;BME280;10038;42.662;23.278;2022-09-12T06:14:17;72627.56;;;17.60;78.27
19759;BME280;10038;42.662;23.278;2022-09-12T06:16:44;72692.06;;;18.16;75.48
19759;BME280;10038;42.662;23.278;2022-09-12T06:19:13;72871.00;;;19.76;69.16
19759;BME280;10038;42.662;23.278;2022-09-12T06:21:40;73046.94;;;21.28;64.27
19759;BME280;10038;42.662;23.278;2022-09-12T06:24:08;73169.78;;;22.42;58.79
19759;BME280;10038;42.662;23.278;2022-09-12T06:26:36;72953.13;;;20.47;63.38
19759;BME280;10038;42.662;23.278;2022-09-12T06:29:03;73175.50;;;22.44;59.21
19759;BME280;10038;42.662;23.278;2022-09-12T06:31:31;73363.38;;;24.06;54.46
19759;BME280;10038;42.662;23.278;2022-09-12T06:34:00;73493.09;;;25.18;50.11
19759;BME280;10038;42.662;23.278;2022-09-12T06:36:29;73525.25;;;25.46;49.13
19759;BME280;10038;42.662;23.278;2022-09-12T06:38:57;73440.50;;;24.73;50.14
19759;BME280;10038;42.662;23.278;2022-09-12T06:41:25;73453.94;;;24.85;49.69
19759;BME280;10038;42.662;23.278;2022-09-12T06:43:54;73566.16;;;25.82;48.58
19759;BME280;10038;42.662;23.278;2022-09-12T06:46:20;73359.59;;;23.98;52.91
19759;BME280;10038;42.662;23.278;2022-09-12T06:48:47;73167.91;;;22.38;58.09
19759;BME280;10038;42.662;23.278;2022-09-12T06:51:16;73069.66;;;21.48;61.61
19759;BME280;10038;42.662;23.278;2022-09-12T06:53:45;72915.84;;;20.15;66.63
19759;BME280;10038;42.662;23.278;2022-09-12T06:56:13;73045.16;;;21.27;64.82
19759;BME280;10038;42.662;23.278;2022-09-12T06:58:42;73247.25;;;23.06;57.92
19759;BME280;10038;42.662;23.278;2022-09-12T07:01:11;73099.94;;;21.74;61.29
19759;BME280;10038;42.662;23.278;2022-09-12T07:03:40;72978.16;;;20.69;65.04
19759;BME280;10038;42.662;23.278;2022-09-12T07:06:09;72850.66;;;19.58;68.82
19759;BME280;10038;42.662;23.278;2022-09-12T07:08:37;72726.72;;;18.51;73.06
19759;BME280;10038;42.662;23.278;2022-09-12T07:11:08;72679.34;;;18.14;74.79
19759;BME280;10038;42.662;23.278;2022-09-12T07:13:36;72765.38;;;18.79;72.50
19759;BME280;10038;42.662;23.278;2022-09-12T07:16:03;72892.22;;;19.89;68.83
19759;BME280;10038;42.662;23.278;2022-09-12T07:18:32;72899.53;;;20.00;65.75
19759;BME280;10038;42.662;23.278;2022-09-12T07:20:59;72937.41;;;20.33;64.46
19759;BME280;10038;42.662;23.278;2022-09-12T07:23:26;73154.50;;;22.26;58.67
19759;BME280;10038;42.662;23.278;2022-09-12T07:25:53;73347.63;;;23.93;53.21
19759;BME280;10038;42.662;23.278;2022-09-12T07:28:21;73378.59;;;24.20;49.82
19759;BME280;10038;42.662;23.278;2022-09-12T07:30:48;73500.97;;;25.30;48.37
19759;BME280;10038;42.662;23.278;2022-09-12T07:33:15;73463.88;;;24.93;47.80
19759;BME280;10038;42.662;23.278;2022-09-12T07:35:43;73546.28;;;25.64;47.03
19759;BME280;10038;42.662;23.278;2022-09-12T07:38:10;73437.88;;;24.66;49.93
19759;BME280;10038;42.662;23.278;2022-09-12T07:40:37;73454.53;;;24.85;49.04
19759;BME280;10038;42.662;23.278;2022-09-12T07:43:03;73617.63;;;26.26;45.70
19759;BME280;10038;42.662;23.278;2022-09-12T07:45:30;73694.41;;;26.94;43.50
19759;BME280;10038;42.662;23.278;2022-09-12T07:47:57;73668.66;;;26.72;43.54
19759;BME280;10038;42.662;23.278;2022-09-12T07:50:24;73806.16;;;27.91;41.03
19759;BME280;10038;42.662;23.278;2022-09-12T07:52:53;74030.09;;;29.86;37.56
19759;BME280;10038;42.662;23.278;2022-09-12T07:55:20;73929.88;;;29.00;36.92
19759;BME280;10038;42.662;23.278;2022-09-12T07:57:48;73971.97;;;29.34;37.00
19759;BME280;10038;42.662;23.278;2022-09-12T08:00:15;74183.03;;;31.15;34.88
19759;BME280;10038;42.662;23.278;2022-09-12T08:02:42;74058.25;;;30.10;35.83
19759;BME280;10038;42.662;23.278;2022-09-12T08:05:09;73805.13;;;27.92;38.99
19759;BME280;10038;42.662;23.278;2022-09-12T08:07:36;73633.97;;;26.40;42.39
19759;BME280;10038;42.662;23.278;2022-09-12T08:10:04;73480.25;;;25.07;45.55
19759;BME280;10038;42.662;23.278;2022-09-12T08:12:31;73610.16;;;26.22;43.79
19759;BME280;10038;42.662;23.278;2022-09-12T08:14:58;73513.53;;;25.36;44.91
19759;BME280;10038;42.662;23.278;2022-09-12T08:17:25;73624.06;;;26.31;41.83
19759;BME280;10038;42.662;23.278;2022-09-12T08:19:53;73708.28;;;27.04;41.17
19759;BME280;10038;42.662;23.278;2022-09-12T08:22:19;73769.75;;;27.57;40.31
19759;BME280;10038;42.662;23.278;2022-09-12T08:24:46;73950.38;;;29.17;37.91
19759;BME280;10038;42.662;23.278;2022-09-12T08:27:14;73813.78;;;27.97;39.45
19759;BME280;10038;42.662;23.278;2022-09-12T08:29:41;73524.81;;;25.48;43.82
19759;BME280;10038;42.662;23.278;2022-09-12T08:32:08;73728.78;;;27.22;40.57
19759;BME280;10038;42.662;23.278;2022-09-12T08:34:35;73600.66;;;26.11;42.62
19759;BME280;10038;42.662;23.278;2022-09-12T08:37:01;73335.66;;;23.78;49.02
19759;BME280;10038;42.662;23.278;2022-09-12T08:39:28;73411.88;;;24.48;47.97
19759;BME280;10038;42.662;23.278;2022-09-12T08:41:58;73390.56;;;24.25;46.68
19759;BME280;10038;42.662;23.278;2022-09-12T08:45:09;73341.78;;;23.88;49.51
19759;BME280;10038;42.662;23.278;2022-09-12T08:47:42;73430.56;;;24.64;47.35
19759;BME280;10038;42.662;23.278;2022-09-12T08:50:15;73572.00;;;25.87;43.76
19759;BME280;10038;42.662;23.278;2022-09-12T08:52:49;73503.19;;;25.30;45.04
19759;BME280;10038;42.662;23.278;2022-09-12T08:55:36;73196.47;;;22.62;51.36
19759;BME280;10038;42.662;23.278;2022-09-12T08:58:10;73500.69;;;25.25;45.67
19759;BME280;10038;42.662;23.278;2022-09-12T09:00:47;73492.50;;;25.18;45.52
19759;BME280;10038;42.662;23.278;2022-09-12T09:03:29;73225.09;;;22.87;50.83
19759;BME280;10038;42.662;23.278;2022-09-12T09:06:02;73185.09;;;22.48;53.63
19759;BME280;10038;42.662;23.278;2022-09-12T09:08:46;73197.91;;;22.59;52.40
19759;BME280;10038;42.662;23.278;2022-09-12T09:14:16;73095.88;;;21.70;54.20
19759;BME280;10038;42.662;23.278;2022-09-12T09:17:10;73524.06;;;25.45;45.06
19759;BME280;10038;42.662;23.278;2022-09-12T09:19:42;73691.31;;;26.89;41.60
19759;BME280;10038;42.662;23.278;2022-09-12T09:22:16;73784.50;;;27.72;39.62
19759;BME280;10038;42.662;23.278;2022-09-12T09:24:49;73739.28;;;27.31;39.17
19759;BME280;10038;42.662;23.278;2022-09-12T09:27:28;73447.09;;;24.81;44.92
19759;BME280;10038;42.662;23.278;2022-09-12T09:29:57;73360.47;;;24.04;47.12
19759;BME280;10038;42.662;23.278;2022-09-12T09:32:27;73480.25;;;25.07;45.66
19759;BME280;10038;42.662;23.278;2022-09-12T09:34:56;73641.00;;;26.46;41.68
19759;BME280;10038;42.662;23.278;2022-09-12T09:37:27;73655.06;;;26.58;41.27
19759;BME280;10038;42.662;23.278;2022-09-12T09:40:04;73554.03;;;25.73;42.54
19759;BME280;10038;42.662;23.278;2022-09-12T09:42:43;73561.03;;;25.79;42.85
19759;BME280;10038;42.662;23.278;2022-09-12T09:45:18;73422.41;;;24.57;45.57
19759;BME280;10038;42.662;23.278;2022-09-12T09:47:48;73485.50;;;25.12;44.87
19759;BME280;10038;42.662;23.278;2022-09-12T09:50:16;73574.94;;;25.89;43.69
19759;BME280;10038;42.662;23.278;2022-09-12T09:52:44;73715.91;;;27.11;41.42
19759;BME280;10038;42.662;23.278;2022-09-12T09:55:15;73691.31;;;26.89;39.82
19759;BME280;10038;42.662;23.278;2022-09-12T09:57:45;73406.78;;;24.46;45.12
19759;BME280;10038;42.662;23.278;2022-09-12T10:00:29;73221.56;;;22.84;49.22
19759;BME280;10038;42.662;23.278;2022-09-12T10:03:04;73276.69;;;23.27;49.71
19759;BME280;10038;42.662;23.278;2022-09-12T10:05:33;73406.19;;;24.46;46.23
19759;BME280;10038;42.662;23.278;2022-09-12T10:08:01;73459.19;;;24.89;43.10
19759;BME280;10038;42.662;23.278;2022-09-12T10:10:29;73663.22;;;26.65;41.13
19759;BME280;10038;42.662;23.278;2022-09-12T10:13:06;73885.94;;;28.62;38.05
19759;BME280;10038;42.662;23.278;2022-09-12T10:15:33;73955.69;;;29.22;36.49
19759;BME280;10038;42.662;23.278;2022-09-12T10:18:01;73956.69;;;29.20;36.04
19759;BME280;10038;42.662;23.278;2022-09-12T10:20:30;74002.41;;;29.60;36.00
19759;BME280;10038;42.662;23.278;2022-09-12T10:22:58;73722.34;;;27.16;39.56
19759;BME280;10038;42.662;23.278;2022-09-12T10:25:27;73717.06;;;27.12;39.48
19759;BME280;10038;42.662;23.278;2022-09-12T10:27:56;73639.84;;;26.45;41.10
19759;BME280;10038;42.662;23.278;2022-09-12T10:30:24;73485.50;;;25.12;44.01
19759;BME280;10038;42.662;23.278;2022-09-12T10:32:55;73330.13;;;23.78;47.00
19759;BME280;10038;42.662;23.278;2022-09-12T10:35:27;73293.94;;;23.46;49.23
19759;BME280;10038;42.662;23.278;2022-09-12T10:37:57;73380.34;;;24.21;48.83
19759;BME280;10038;42.662;23.278;2022-09-12T10:40:28;73482.72;;;25.12;44.94
19759;BME280;10038;42.662;23.278;2022-09-12T10:42:58;73295.13;;;23.47;46.41
19759;BME280;10038;42.662;23.278;2022-09-12T10:45:28;73364.88;;;24.03;45.97
19759;BME280;10038;42.662;23.278;2022-09-12T10:47:56;73179.84;;;22.43;47.08
19759;BME280;10038;42.662;23.278;2022-09-12T10:50:30;73223.91;;;22.86;48.16
19759;BME280;10038;42.662;23.278;2022-09-12T10:53:18;73216.91;;;22.80;49.44
19759;BME280;10038;42.662;23.278;2022-09-12T10:56:02;73487.41;;;25.16;44.74
19759;BME280;10038;42.662;23.278;2022-09-12T10:58:38;73511.94;;;25.37;43.56
19759;BME280;10038;42.662;23.278;2022-09-12T11:01:18;73575.50;;;25.90;43.02
19759;BME280;10038;42.662;23.278;2022-09-12T11:04:04;73409.53;;;24.46;45.77
19759;BME280;10038;42.662;23.278;2022-09-12T11:06:44;73538.09;;;25.57;42.11
19759;BME280;10038;42.662;23.278;2022-09-12T11:09:17;73448.13;;;24.80;43.46
19759;BME280;10038;42.662;23.278;2022-09-12T11:11:57;73448.13;;;24.80;44.19
19759;BME280;10038;42.662;23.278;2022-09-12T11:14:39;73329.69;;;23.80;46.46
19759;BME280;10038;42.662;23.278;2022-09-12T11:17:22;73275.84;;;23.31;48.59
19759;BME280;10038;42.662;23.278;2022-09-12T11:20:14;73229.16;;;22.90;48.30
19759;BME280;10038;42.662;23.278;2022-09-12T11:23:10;73213.41;;;22.77;49.83
19759;BME280;10038;42.662;23.278;2022-09-12T11:25:49;73190.91;;;22.53;50.37
19759;BME280;10038;42.662;23.278;2022-09-12T11:28:34;73223.31;;;22.85;50.70
19759;BME280;10038;42.662;23.278;2022-09-12T11:34:07;73572.72;;;25.90;43.18
19759;BME280;10038;42.662;23.278;2022-09-12T11:36:42;73692.50;;;26.90;40.85
19759;BME280;10038;42.662;23.278;2022-09-12T11:39:14;73776.19;;;27.63;39.80
19759;BME280;10038;42.662;23.278;2022-09-12T11:41:42;73529.91;;;25.50;44.22
19759;BME280;10038;42.662;23.278;2022-09-12T11:44:17;73241.41;;;23.01;49.35
19759;BME280;10038;42.662;23.278;2022-09-12T11:46:45;73174.59;;;22.39;53.67
19759;BME280;10038;42.662;23.278;2022-09-12T11:49:25;73167.59;;;22.32;52.36
19759;BME280;10038;42.662;23.278;2022-09-12T11:51:58;73107.25;;;21.85;53.77
19759;BME280;10038;42.662;23.278;2022-09-12T11:54:32;73131.44;;;22.01;52.89
19759;BME280;10038;42.662;23.278;2022-09-12T11:57:07;73187.41;;;22.50;52.31
19759;BME280;10038;42.662;23.278;2022-09-12T11:59:43;73264.16;;;23.21;49.90
19759;BME280;10038;42.662;23.278;2022-09-12T12:02:16;73335.66;;;23.78;49.17
19759;BME280;10038;42.662;23.278;2022-09-12T12:04:56;73236.44;;;22.92;50.89
19759;BME280;10038;42.662;23.278;2022-09-12T12:07:24;73258.91;;;23.16;50.52
19759;BME280;10038;42.662;23.278;2022-09-12T12:09:53;73218.78;;;22.74;49.35
19759;BME280;10038;42.662;23.278;2022-09-12T12:12:22;73136.13;;;22.05;50.57
19759;BME280;10038;42.662;23.278;2022-09-12T12:14:52;73105.78;;;21.79;51.70
19759;BME280;10038;42.662;23.278;2022-09-12T12:17:22;73136.44;;;22.10;51.28
19759;BME280;10038;42.662;23.278;2022-09-12T12:19:57;73250.75;;;23.09;48.85
19759;BME280;10038;42.662;23.278;2022-09-12T12:22:25;73248.41;;;23.07;49.03
19759;BME280;10038;42.662;23.278;2022-09-12T12:25:01;73243.44;;;22.98;49.28
19759;BME280;10038;42.662;23.278;2022-09-12T12:27:44;73292.78;;;23.45;48.64
19759;BME280;10038;42.662;23.278;2022-09-12T12:33:54;73562.66;;;25.78;42.50
19759;BME280;10038;42.662;23.278;2022-09-12T12:36:30;73650.94;;;26.55;40.50
19759;BME280;10038;42.662;23.278;2022-09-12T12:38:58;73749.53;;;27.44;38.87
19759;BME280;10038;42.662;23.278;2022-09-12T12:41:43;73601.53;;;26.07;40.77
19759;BME280;10038;42.662;23.278;2022-09-12T12:44:48;73530.19;;;25.55;42.04
19759;BME280;10038;42.662;23.278;2022-09-12T12:47:17;73604.44;;;26.10;41.29
19759;BME280;10038;42.662;23.278;2022-09-12T12:49:49;73582.81;;;26.01;40.63
19759;BME280;10038;42.662;23.278;2022-09-12T12:52:18;73816.09;;;27.99;38.75
19759;BME280;10038;42.662;23.278;2022-09-12T12:54:50;73669.06;;;26.70;39.46
19759;BME280;10038;42.662;23.278;2022-09-12T12:57:47;73645.69;;;26.50;39.98
19759;BME280;10038;42.662;23.278;2022-09-12T13:00:32;73528.44;;;25.44;42.23
19759;BME280;10038;42.662;23.278;2022-09-12T13:03:01;73280.78;;;23.30;47.26
19759;BME280;10038;42.662;23.278;2022-09-12T13:05:38;73132.94;;;22.07;51.01
19759;BME280;10038;42.662;23.278;2022-09-12T13:08:08;73140.19;;;22.09;53.13
19759;BME280;10038;42.662;23.278;2022-09-12T13:10:36;73202.00;;;22.62;51.48
19759;BME280;10038;42.662;23.278;2022-09-12T13:13:06;73280.50;;;23.35;48.67
19759;BME280;10038;42.662;23.278;2022-09-12T13:15:50;73231.78;;;22.88;48.29
19759;BME280;10038;42.662;23.278;2022-09-12T13:18:22;73197.06;;;22.63;50.41
19759;BME280;10038;42.662;23.278;2022-09-12T13:20:53;73115.44;;;21.92;52.29
19759;BME280;10038;42.662;23.278;2022-09-12T13:23:22;73080.72;;;21.57;53.86